Time;durP1;ratioP1;P1;durP2;ratioP2;P2;SDS_P1;SDS_P2;PMS_P1;PMS_P2;Temp;Humidity;BMP_temperature;BMP_pressure;BME280_temperature;BME280_humidity;BME280_pressure;Samples;Min_cycle;Max_cycle;Signal;HPM_P1;HPM_P2
2021/12/22 00:00:18;;;;;;;29.20;19.75;;;;;;;;;;5050839;28;20034;-60
2021/12/22 00:02:48;;;;;;;30.80;20.58;;;;;;;;;;5072760;28;20047;-60
2021/12/22 00:05:15;;;;;;;29.40;19.60;;;;;;;;;;5073449;28;20024;-60
2021/12/22 00:07:41;;;;;;;29.27;19.35;;;;;;;;;;5072157;28;20039;-60
2021/12/22 00:10:07;;;;;;;26.25;19.10;;;;;;;;;;5073260;28;20032;-60
2021/12/22 00:12:32;;;;;;;32.20;19.02;;;;;;;;;;5073116;28;20385;-60
2021/12/22 00:14:58;;;;;;;23.60;17.25;;;;;;;;;;5055349;28;20030;-60
2021/12/22 00:17:23;;;;;;;25.67;17.00;;;;;;;;;;5072955;28;20032;-59
2021/12/22 00:19:49;;;;;;;22.63;17.17;;;;;;;;;;5073244;28;20043;-59
2021/12/22 00:22:14;;;;;;;27.63;17.75;;;;;;;;;;5073059;28;20388;-61
2021/12/22 00:24:40;;;;;;;24.13;18.02;;;;;;;;;;5055304;28;20115;-61
2021/12/22 00:27:06;;;;;;;29.27;19.73;;;;;;;;;;5072905;28;20085;-60
2021/12/22 00:29:31;;;;;;;25.13;17.25;;;;;;;;;;5072834;28;20024;-61
2021/12/22 00:32:15;;;;;;;25.95;18.73;;;;;;;;;;5072841;28;20021;-61
2021/12/22 00:35:00;;;;;;;25.02;18.70;;;;;;;;;;5055176;28;20044;-60
2021/12/22 00:37:32;;;;;;;31.23;21.50;;;;;;;;;;5071844;28;20039;-62
2021/12/22 00:39:58;;;;;;;41.33;28.88;;;;;;;;;;5054650;28;20388;-60
2021/12/22 00:42:24;;;;;;;29.35;22.35;;;;;;;;;;5073318;28;20029;-60
2021/12/22 00:44:52;;;;;;;30.50;19.25;;;;;;;;;;5054906;28;20060;-62
2021/12/22 00:47:18;;;;;;;25.77;18.65;;;;;;;;;;5054747;28;20074;-61
2021/12/22 00:49:45;;;;;;;27.13;18.88;;;;;;;;;;5072728;28;20464;-60
2021/12/22 00:52:11;;;;;;;30.77;19.33;;;;;;;;;;5054582;28;20032;-61
2021/12/22 00:54:36;;;;;;;25.05;17.30;;;;;;;;;;5072089;28;20041;-61
2021/12/22 00:57:05;;;;;;;23.70;16.52;;;;;;;;;;5072473;28;20033;-61
2021/12/22 00:59:31;;;;;;;23.88;17.33;;;;;;;;;;5054680;28;20030;-61
2021/12/22 01:01:57;;;;;;;31.10;17.30;;;;;;;;;;5071311;28;20072;-61
2021/12/22 01:04:22;;;;;;;26.13;16.20;;;;;;;;;;5072463;28;20086;-61
2021/12/22 01:06:47;;;;;;;28.75;17.10;;;;;;;;;;5072537;28;20799;-60
2021/12/22 01:09:13;;;;;;;24.92;17.48;;;;;;;;;;5072240;28;20040;-60
2021/12/22 01:11:38;;;;;;;25.42;18.27;;;;;;;;;;5072398;28;20032;-61
2021/12/22 01:14:04;;;;;;;29.10;18.95;;;;;;;;;;5071146;28;20475;-61
2021/12/22 01:16:30;;;;;;;24.90;17.65;;;;;;;;;;5054767;28;20171;-61
2021/12/22 01:18:58;;;;;;;26.52;18.15;;;;;;;;;;5072139;28;20051;-61
2021/12/22 01:21:35;;;;;;;27.95;18.77;;;;;;;;;;5054227;28;20040;-61
2021/12/22 01:24:28;;;;;;;24.50;17.38;;;;;;;;;;5037775;28;20028;-61
2021/12/22 01:27:03;;;;;;;29.88;18.63;;;;;;;;;;5054554;28;20449;-61
2021/12/22 01:29:28;;;;;;;26.15;18.15;;;;;;;;;;5072285;28;20035;-63
2021/12/22 01:31:56;;;;;;;22.70;16.90;;;;;;;;;;5071897;28;20032;-62
2021/12/22 01:34:22;;;;;;;26.20;17.63;;;;;;;;;;5070442;28;20089;-61
2021/12/22 01:36:47;;;;;;;24.17;18.35;;;;;;;;;;5072295;28;20095;-60
2021/12/22 01:39:12;;;;;;;24.63;17.42;;;;;;;;;;5071833;28;20483;-60
2021/12/22 01:41:38;;;;;;;30.83;18.45;;;;;;;;;;5054063;28;20048;-61
2021/12/22 01:44:05;;;;;;;25.95;17.90;;;;;;;;;;5071890;28;20032;-60
2021/12/22 01:49:36;;;;;;;24.67;18.45;;;;;;;;;;5054172;28;20495;-61
2021/12/22 01:52:05;;;;;;;22.20;17.10;;;;;;;;;;5071506;28;20039;-62
2021/12/22 01:54:35;;;;;;;24.33;18.23;;;;;;;;;;5053707;28;20055;-61
2021/12/22 01:57:06;;;;;;;26.25;17.83;;;;;;;;;;5053823;28;20037;-62
2021/12/22 01:59:32;;;;;;;24.80;17.58;;;;;;;;;;5053940;28;20024;-61
2021/12/22 02:02:01;;;;;;;22.15;18.02;;;;;;;;;;5053742;28;20032;-62
2021/12/22 02:04:26;;;;;;;23.38;17.75;;;;;;;;;;5071593;28;20498;-63
2021/12/22 02:06:52;;;;;;;23.23;17.90;;;;;;;;;;5071592;28;20111;-62
2021/12/22 02:09:33;;;;;;;24.58;18.77;;;;;;;;;;5071996;28;20111;-62
2021/12/22 02:11:59;;;;;;;23.85;18.38;;;;;;;;;;5070222;28;20491;-61
2021/12/22 02:14:24;;;;;;;24.83;19.20;;;;;;;;;;5071483;28;20028;-60
2021/12/22 02:16:50;;;;;;;24.35;17.95;;;;;;;;;;5071545;28;20415;-62
2021/12/22 02:19:15;;;;;;;23.08;18.17;;;;;;;;;;5053576;28;20024;-62
2021/12/22 02:21:47;;;;;;;25.67;17.77;;;;;;;;;;5071331;28;20115;-60
2021/12/22 02:24:13;;;;;;;28.88;18.75;;;;;;;;;;5036895;28;20566;-60
2021/12/22 02:26:50;;;;;;;33.35;23.48;;;;;;;;;;5056661;28;20032;-61
2021/12/22 02:29:33;;;;;;;27.38;18.92;;;;;;;;;;5040513;28;20037;-61
2021/12/22 02:32:07;;;;;;;24.95;17.83;;;;;;;;;;5056966;28;20115;-61
2021/12/22 02:34:42;;;;;;;27.30;21.08;;;;;;;;;;5067692;28;20081;-61
2021/12/22 02:37:12;;;;;;;30.70;19.80;;;;;;;;;;5069696;28;20579;-63
2021/12/22 02:39:43;;;;;;;53.42;37.80;;;;;;;;;;5073853;28;20032;-61
2021/12/22 02:42:11;;;;;;;31.35;22.45;;;;;;;;;;5074709;28;20159;-61
2021/12/22 02:44:37;;;;;;;30.05;19.98;;;;;;;;;;5073447;28;20063;-62
2021/12/22 02:47:14;;;;;;;26.95;18.02;;;;;;;;;;5074310;28;20121;-61
2021/12/22 02:49:39;;;;;;;25.45;18.00;;;;;;;;;;5087878;28;20605;-61
2021/12/22 02:52:05;;;;;;;26.52;19.23;;;;;;;;;;5074909;28;20063;-60
2021/12/22 02:54:39;;;;;;;26.48;19.40;;;;;;;;;;5074582;28;20491;-61
2021/12/22 02:57:19;;;;;;;27.92;19.98;;;;;;;;;;5074506;28;20036;-60
2021/12/22 03:00:10;;;;;;;;;;;;;;;;;;5073798;28;20083;-60
2021/12/22 03:02:39;;;;;;;30.88;20.52;;;;;;;;;;5073816;28;19955;-61
2021/12/22 03:05:05;;;;;;;29.30;21.02;;;;;;;;;;5056324;28;20373;-61
2021/12/22 03:07:31;;;;;;;24.90;18.73;;;;;;;;;;5039964;28;20024;-61
2021/12/22 03:10:00;;;;;;;24.65;18.00;;;;;;;;;;5074717;28;20037;-61
2021/12/22 03:12:26;;;;;;;25.40;18.38;;;;;;;;;;5056133;28;20040;-61
2021/12/22 03:14:52;;;;;;;25.25;18.35;;;;;;;;;;5039826;28;20036;-62
2021/12/22 03:17:17;;;;;;;25.05;17.02;;;;;;;;;;5074144;28;20430;-61
2021/12/22 03:19:42;;;;;;;24.20;16.95;;;;;;;;;;5073802;28;20047;-61
2021/12/22 03:22:10;;;;;;;27.02;17.02;;;;;;;;;;5074069;28;20029;-61
2021/12/22 03:24:37;;;;;;;23.80;17.77;;;;;;;;;;5073980;28;20037;-60
2021/12/22 03:27:03;;;;;;;27.48;18.58;;;;;;;;;;5055772;28;20036;-62
2021/12/22 03:29:33;;;;;;;25.98;17.58;;;;;;;;;;5039322;28;20074;-62
2021/12/22 03:31:58;;;;;;;27.58;17.58;;;;;;;;;;5039304;28;20029;-62
2021/12/22 03:34:24;;;;;;;22.13;16.13;;;;;;;;;;5074190;28;20111;-61
2021/12/22 03:36:49;;;;;;;23.65;16.13;;;;;;;;;;5072881;28;20056;-61
2021/12/22 03:39:15;;;;;;;22.60;16.30;;;;;;;;;;5073997;28;20032;-61
2021/12/22 03:41:42;;;;;;;21.30;14.43;;;;;;;;;;5073641;28;20029;-62
2021/12/22 03:44:08;;;;;;;24.17;15.80;;;;;;;;;;5038967;28;20041;-60
2021/12/22 03:46:33;;;;;;;20.27;13.93;;;;;;;;;;5073794;28;20170;-60
2021/12/22 03:48:59;;;;;;;16.95;12.88;;;;;;;;;;5073538;28;20036;-62
2021/12/22 03:51:25;;;;;;;17.50;13.23;;;;;;;;;;5073826;28;20033;-61
2021/12/22 03:53:51;;;;;;;19.25;12.93;;;;;;;;;;5072316;28;20041;-61
2021/12/22 03:56:16;;;;;;;19.60;12.68;;;;;;;;;;5073381;28;20039;-60
2021/12/22 03:58:41;;;;;;;16.25;12.30;;;;;;;;;;5073297;28;20095;-60
2021/12/22 04:01:07;;;;;;;15.95;12.30;;;;;;;;;;5073424;28;20033;-61
2021/12/22 04:03:35;;;;;;;17.23;12.23;;;;;;;;;;5068414;28;20044;-61
2021/12/22 04:06:00;;;;;;;17.73;12.27;;;;;;;;;;5051526;28;20032;-61
2021/12/22 04:08:26;;;;;;;15.68;10.68;;;;;;;;;;5069580;28;20110;-61
2021/12/22 04:10:51;;;;;;;16.80;12.05;;;;;;;;;;5069576;28;20025;-61
2021/12/22 04:13:18;;;;;;;20.55;15.10;;;;;;;;;;5051314;28;20529;-60
2021/12/22 04:15:44;;;;;;;19.55;14.73;;;;;;;;;;5051388;28;20438;-60
2021/12/22 04:18:10;;;;;;;24.33;17.05;;;;;;;;;;5051343;28;20083;-62
2021/12/22 04:20:36;;;;;;;21.55;16.35;;;;;;;;;;5068966;28;20116;-61
2021/12/22 04:23:02;;;;;;;22.00;16.10;;;;;;;;;;5051234;28;20127;-62
2021/12/22 04:25:28;;;;;;;19.73;15.68;;;;;;;;;;5069117;28;20357;-61
2021/12/22 04:27:56;;;;;;;18.98;15.45;;;;;;;;;;5069006;28;20119;-66
2021/12/22 04:30:22;;;;;;;19.92;14.88;;;;;;;;;;5051044;28;20036;-65
2021/12/22 04:32:48;;;;;;;19.40;15.73;;;;;;;;;;5034116;28;20132;-61
2021/12/22 04:35:14;;;;;;;21.85;15.00;;;;;;;;;;5051254;28;20131;-61
2021/12/22 04:37:39;;;;;;;21.23;16.17;;;;;;;;;;5051443;28;20048;-60
2021/12/22 04:40:05;;;;;;;22.90;15.88;;;;;;;;;;5068680;28;20041;-60
2021/12/22 04:42:31;;;;;;;19.80;15.45;;;;;;;;;;5051066;28;20210;-60
2021/12/22 04:44:58;;;;;;;19.35;15.40;;;;;;;;;;5068711;28;20115;-61
2021/12/22 04:47:23;;;;;;;19.70;14.75;;;;;;;;;;5068970;28;20132;-60
2021/12/22 04:49:49;;;;;;;18.30;14.88;;;;;;;;;;5068751;28;20111;-60
2021/12/22 04:52:20;;;;;;;17.98;13.43;;;;;;;;;;5068714;28;20544;-64
2021/12/22 04:55:04;;;;;;;18.80;13.55;;;;;;;;;;5050431;28;20067;-62
2021/12/22 04:57:30;;;;;;;17.08;13.48;;;;;;;;;;5050805;28;20084;-60
2021/12/22 04:59:56;;;;;;;19.08;13.13;;;;;;;;;;5050487;28;20036;-62
2021/12/22 05:02:21;;;;;;;19.08;13.15;;;;;;;;;;5068570;28;20037;-61
2021/12/22 05:04:46;;;;;;;20.48;12.07;;;;;;;;;;5068487;28;20024;-61
2021/12/22 05:07:12;;;;;;;12.80;10.00;;;;;;;;;;5068640;28;20441;-61
2021/12/22 05:09:37;;;;;;;14.40;10.07;;;;;;;;;;5068602;28;20090;-60
2021/12/22 05:12:03;;;;;;;14.77;10.10;;;;;;;;;;5050393;28;20085;-60
2021/12/22 05:14:29;;;;;;;15.63;10.27;;;;;;;;;;5068306;28;20028;-65
2021/12/22 05:16:59;;;;;;;13.45;9.93;;;;;;;;;;5068477;28;20059;-60
2021/12/22 05:19:25;;;;;;;15.13;9.57;;;;;;;;;;5068675;28;20411;-60
2021/12/22 05:21:50;;;;;;;16.50;10.40;;;;;;;;;;5068686;28;20032;-61
2021/12/22 05:24:16;;;;;;;14.18;9.40;;;;;;;;;;5068028;28;20043;-61
2021/12/22 05:26:41;;;;;;;11.02;8.75;;;;;;;;;;5049916;28;20024;-60
2021/12/22 05:29:07;;;;;;;14.07;10.02;;;;;;;;;;5068617;28;20029;-61
2021/12/22 05:31:32;;;;;;;12.02;9.13;;;;;;;;;;5068165;28;20488;-62
2021/12/22 05:33:58;;;;;;;15.07;9.68;;;;;;;;;;5068167;28;20051;-62
2021/12/22 05:36:23;;;;;;;14.00;9.95;;;;;;;;;;5068455;28;20032;-62
2021/12/22 05:38:49;;;;;;;12.07;9.40;;;;;;;;;;5067843;28;20035;-61
2021/12/22 05:41:14;;;;;;;12.52;9.82;;;;;;;;;;5050138;28;20476;-61
2021/12/22 05:43:40;;;;;;;15.15;10.00;;;;;;;;;;5068713;28;20479;-62
2021/12/22 05:46:05;;;;;;;14.88;10.60;;;;;;;;;;5068549;28;20089;-61
2021/12/22 05:48:31;;;;;;;13.30;10.43;;;;;;;;;;5068148;28;20071;-60
2021/12/22 05:50:58;;;;;;;14.23;9.95;;;;;;;;;;5067619;28;20029;-61
2021/12/22 05:53:25;;;;;;;15.10;10.98;;;;;;;;;;5049646;28;20055;-62
2021/12/22 05:55:50;;;;;;;15.45;10.57;;;;;;;;;;5049923;28;20134;-61
2021/12/22 05:58:16;;;;;;;16.50;11.02;;;;;;;;;;5068076;28;20504;-61
2021/12/22 06:00:41;;;;;;;14.73;10.63;;;;;;;;;;5069834;28;20067;-64
2021/12/22 06:03:07;;;;;;;14.50;10.32;;;;;;;;;;5053627;28;20896;-61
2021/12/22 06:05:32;;;;;;;18.08;11.98;;;;;;;;;;5071530;28;20028;-62
2021/12/22 06:07:58;;;;;;;15.55;11.65;;;;;;;;;;5071361;28;20033;-62
2021/12/22 06:10:23;;;;;;;18.23;11.90;;;;;;;;;;5071646;28;20024;-62
2021/12/22 06:12:48;;;;;;;17.83;11.93;;;;;;;;;;5070989;28;20033;-63
2021/12/22 06:15:14;;;;;;;16.08;11.98;;;;;;;;;;5071236;28;20480;-61
2021/12/22 06:17:39;;;;;;;16.63;11.93;;;;;;;;;;5071237;28;20056;-61
2021/12/22 06:20:05;;;;;;;16.35;12.20;;;;;;;;;;5071108;28;20369;-61
2021/12/22 06:22:33;;;;;;;16.23;12.73;;;;;;;;;;5035443;28;20037;-61
2021/12/22 06:24:58;;;;;;;25.45;12.80;;;;;;;;;;5052040;28;20509;-62
2021/12/22 06:27:24;;;;;;;23.08;14.25;;;;;;;;;;5071136;28;20029;-61
2021/12/22 06:29:49;;;;;;;18.98;13.45;;;;;;;;;;5052899;28;20171;-61
2021/12/22 06:32:15;;;;;;;19.40;14.00;;;;;;;;;;5071187;28;20035;-65
2021/12/22 06:34:40;;;;;;;24.70;15.20;;;;;;;;;;5070647;28;20056;-61
2021/12/22 06:37:06;;;;;;;17.92;13.93;;;;;;;;;;5070804;28;20040;-61
2021/12/22 06:39:33;;;;;;;19.42;15.23;;;;;;;;;;5070662;28;20396;-66
2021/12/22 06:42:00;;;;;;;24.33;15.65;;;;;;;;;;5069559;28;20188;-61
2021/12/22 06:44:25;;;;;;;20.98;15.00;;;;;;;;;;5070379;28;20035;-62
2021/12/22 06:46:51;;;;;;;22.15;15.43;;;;;;;;;;5071071;28;20098;-61
2021/12/22 06:49:17;;;;;;;24.02;15.63;;;;;;;;;;5070699;28;20044;-60
2021/12/22 06:51:42;;;;;;;22.45;16.52;;;;;;;;;;5052477;28;20048;-60
2021/12/22 06:54:08;;;;;;;20.05;15.32;;;;;;;;;;5070191;28;20123;-64
2021/12/22 06:56:33;;;;;;;19.90;14.98;;;;;;;;;;5070907;28;20032;-60
2021/12/22 06:59:00;;;;;;;20.27;15.60;;;;;;;;;;5070046;28;20063;-61
2021/12/22 07:01:26;;;;;;;20.05;15.25;;;;;;;;;;5070702;28;20072;-61
2021/12/22 07:03:51;;;;;;;21.27;15.88;;;;;;;;;;5070718;28;20070;-61
2021/12/22 07:06:17;;;;;;;21.10;15.20;;;;;;;;;;5070592;28;20044;-62
2021/12/22 07:08:42;;;;;;;19.70;14.32;;;;;;;;;;5069777;28;20043;-61
2021/12/22 07:11:08;;;;;;;20.80;14.07;;;;;;;;;;5051456;28;20025;-62
2021/12/22 07:13:33;;;;;;;18.02;13.25;;;;;;;;;;5069957;28;20101;-61
2021/12/22 07:15:59;;;;;;;20.38;14.10;;;;;;;;;;5070196;28;20067;-61
2021/12/22 07:18:24;;;;;;;18.23;14.95;;;;;;;;;;5070282;28;20468;-61
2021/12/22 07:20:50;;;;;;;22.00;14.80;;;;;;;;;;5070149;28;20070;-62
2021/12/22 07:23:16;;;;;;;18.77;14.77;;;;;;;;;;5069702;28;20033;-61
2021/12/22 07:25:41;;;;;;;20.00;13.90;;;;;;;;;;5051963;28;20025;-61
2021/12/22 07:28:10;;;;;;;17.40;12.63;;;;;;;;;;5069722;28;20037;-60
2021/12/22 07:30:36;;;;;;;18.63;12.93;;;;;;;;;;5069723;28;20032;-63
2021/12/22 07:33:01;;;;;;;14.38;11.05;;;;;;;;;;5070000;28;20105;-61
2021/12/22 07:35:33;;;;;;;15.57;11.95;;;;;;;;;;5069940;28;20041;-61
2021/12/22 07:38:02;;;;;;;15.40;11.20;;;;;;;;;;5069555;28;20040;-61
2021/12/22 07:40:27;;;;;;;14.73;11.43;;;;;;;;;;5051785;28;20064;-63
2021/12/22 07:42:52;;;;;;;14.13;10.48;;;;;;;;;;5069675;28;20558;-65
2021/12/22 07:45:18;;;;;;;14.80;11.77;;;;;;;;;;5069843;28;20036;-66
2021/12/22 07:47:43;;;;;;;15.63;11.57;;;;;;;;;;5069830;28;20033;-62
2021/12/22 07:50:09;;;;;;;13.98;11.55;;;;;;;;;;5072607;28;20038;-62
2021/12/22 07:52:35;;;;;;;14.65;11.25;;;;;;;;;;5053958;28;20056;-66
2021/12/22 07:55:02;;;;;;;14.50;10.55;;;;;;;;;;5085309;28;20087;-63
2021/12/22 07:57:27;;;;;;;14.35;10.88;;;;;;;;;;5069644;28;20396;-61
2021/12/22 07:59:53;;;;;;;16.20;10.85;;;;;;;;;;5068279;28;20036;-61
2021/12/22 08:02:18;;;;;;;17.88;10.85;;;;;;;;;;5069602;28;20086;-62
2021/12/22 08:04:44;;;;;;;15.02;10.45;;;;;;;;;;5051129;28;20032;-61
2021/12/22 08:07:09;;;;;;;14.90;10.60;;;;;;;;;;5068637;28;20042;-62
2021/12/22 08:09:35;;;;;;;14.88;10.18;;;;;;;;;;5084841;28;20036;-62
2021/12/22 08:12:04;;;;;;;14.70;10.52;;;;;;;;;;5069143;28;20364;-62
2021/12/22 08:14:39;;;;;;;15.25;11.18;;;;;;;;;;5051084;28;20032;-63
2021/12/22 08:17:05;;;;;;;13.45;9.07;;;;;;;;;;5067554;28;20043;-62
2021/12/22 08:19:31;;;;;;;15.52;9.75;;;;;;;;;;5067639;28;20037;-63
2021/12/22 08:21:56;;;;;;;15.98;10.48;;;;;;;;;;5068893;28;20384;-63
2021/12/22 08:24:22;;;;;;;15.65;9.88;;;;;;;;;;5067275;28;20051;-62
2021/12/22 08:26:48;;;;;;;18.08;10.85;;;;;;;;;;5050304;28;20023;-64
2021/12/22 08:29:13;;;;;;;22.33;11.82;;;;;;;;;;5068965;28;20032;-61
2021/12/22 08:31:39;;;;;;;13.43;9.73;;;;;;;;;;5068596;28;20362;-63
2021/12/22 08:34:06;;;;;;;16.60;9.90;;;;;;;;;;5067441;28;20037;-62
2021/12/22 08:39:15;;;;;;;13.77;9.95;;;;;;;;;;5068747;28;20079;-66
2021/12/22 08:41:43;;;;;;;12.73;10.52;;;;;;;;;;5065726;28;20052;-67
2021/12/22 08:44:10;;;;;;;12.88;9.90;;;;;;;;;;5050767;28;20036;-67
2021/12/22 08:46:37;;;;;;;14.73;9.60;;;;;;;;;;5066891;28;20037;-66
2021/12/22 08:49:03;;;;;;;15.20;10.88;;;;;;;;;;5067045;28;20540;-66
2021/12/22 08:51:29;;;;;;;14.30;10.13;;;;;;;;;;5050097;28;20024;-66
2021/12/22 08:53:54;;;;;;;14.45;9.80;;;;;;;;;;5047985;28;20036;-67
2021/12/22 08:56:21;;;;;;;12.80;9.75;;;;;;;;;;5067101;28;20422;-67
2021/12/22 08:58:46;;;;;;;13.68;9.55;;;;;;;;;;5049817;28;20028;-67
2021/12/22 09:01:12;;;;;;;14.80;11.23;;;;;;;;;;5068371;28;20056;-67
2021/12/22 09:03:37;;;;;;;13.10;10.02;;;;;;;;;;5068340;28;20068;-67
2021/12/22 09:06:03;;;;;;;14.82;10.63;;;;;;;;;;5034035;28;20032;-66
2021/12/22 09:08:29;;;;;;;16.00;10.10;;;;;;;;;;5048667;28;20039;-66
2021/12/22 09:10:54;;;;;;;15.55;11.70;;;;;;;;;;5066663;28;20040;-67
2021/12/22 09:13:20;;;;;;;16.98;11.50;;;;;;;;;;5048201;28;20032;-67
2021/12/22 09:15:47;;;;;;;20.67;11.20;;;;;;;;;;5048182;28;20135;-67
2021/12/22 09:18:13;;;;;;;15.77;11.30;;;;;;;;;;5047693;28;20821;-67
2021/12/22 09:20:38;;;;;;;15.98;11.30;;;;;;;;;;5048273;28;20042;-67
2021/12/22 09:23:04;;;;;;;17.38;12.50;;;;;;;;;;5066948;28;20107;-68
2021/12/22 09:25:29;;;;;;;18.40;12.75;;;;;;;;;;5067779;28;20033;-66
2021/12/22 09:27:55;;;;;;;16.58;12.52;;;;;;;;;;5066064;28;20039;-67
2021/12/22 09:30:20;;;;;;;17.30;12.65;;;;;;;;;;5048313;28;20029;-67
2021/12/22 09:32:46;;;;;;;17.35;12.50;;;;;;;;;;5065509;28;20029;-67
2021/12/22 09:35:11;;;;;;;18.20;12.98;;;;;;;;;;5066927;28;20357;-65
2021/12/22 09:37:36;;;;;;;15.85;13.13;;;;;;;;;;5069166;28;20430;-67
2021/12/22 09:40:05;;;;;;;17.33;12.80;;;;;;;;;;5070759;28;20033;-67
2021/12/22 09:42:31;;;;;;;15.97;12.07;;;;;;;;;;5046075;28;20112;-67
2021/12/22 09:45:00;;;;;;;18.45;11.88;;;;;;;;;;5062305;28;20056;-66
2021/12/22 09:47:29;;;;;;;15.00;11.50;;;;;;;;;;5068738;28;20116;-66
2021/12/22 09:52:29;;;;;;;18.70;11.60;;;;;;;;;;5067960;28;20067;-67
2021/12/22 09:54:56;;;;;;;15.20;12.02;;;;;;;;;;5068435;28;20051;-67
2021/12/22 09:57:22;;;;;;;18.23;11.82;;;;;;;;;;5068119;28;20035;-67
2021/12/22 09:59:49;;;;;;;16.05;11.55;;;;;;;;;;5068360;28;20044;-67
2021/12/22 10:02:15;;;;;;;19.23;12.98;;;;;;;;;;5068318;28;20037;-67
2021/12/22 10:04:41;;;;;;;19.17;17.10;;;;;;;;;;5050811;28;20028;-67
2021/12/22 10:07:08;;;;;;;20.88;18.70;;;;;;;;;;5063582;28;20032;-67
2021/12/22 10:09:41;;;;;;;22.52;20.23;;;;;;;;;;5056398;28;20075;-67
2021/12/22 10:12:12;;;;;;;20.50;18.23;;;;;;;;;;5049908;28;20043;-67
2021/12/22 10:14:46;;;;;;;15.82;12.82;;;;;;;;;;5031104;28;20039;-65
2021/12/22 10:17:25;;;;;;;18.65;12.48;;;;;;;;;;5043263;28;20031;-66
2021/12/22 10:19:53;;;;;;;15.23;10.80;;;;;;;;;;5067916;28;20028;-68
2021/12/22 10:22:18;;;;;;;21.05;11.82;;;;;;;;;;5051756;28;20511;-68
2021/12/22 10:24:45;;;;;;;25.67;22.90;;;;;;;;;;5070620;28;20075;-67
2021/12/22 10:27:22;;;;;;;17.20;11.88;;;;;;;;;;5067575;28;20082;-67
2021/12/22 10:29:48;;;;;;;14.88;10.85;;;;;;;;;;5035291;28;20043;-67
2021/12/22 10:32:14;;;;;;;16.27;11.63;;;;;;;;;;5070033;28;20119;-68
2021/12/22 10:34:59;;;;;;;18.67;12.60;;;;;;;;;;5052519;28;20040;-66
2021/12/22 10:37:35;;;;;;;18.65;13.02;;;;;;;;;;5070833;28;20090;-67
2021/12/22 10:40:00;;;;;;;21.20;13.00;;;;;;;;;;5070169;28;20036;-65
2021/12/22 10:42:38;;;;;;;15.75;11.77;;;;;;;;;;5070208;28;20380;-66
2021/12/22 10:45:11;;;;;;;17.80;13.57;;;;;;;;;;5068805;28;20411;-64
2021/12/22 10:49:14;;;;;;;20.52;14.35;;;;;;;;;;5067301;28;20029;-66
2021/12/22 10:50:30;;;;;;;18.02;12.55;;;;;;;;;;5066779;28;20040;-64
2021/12/22 10:52:57;;;;;;;15.20;12.45;;;;;;;;;;5070127;28;20043;-66
2021/12/22 10:55:22;;;;;;;19.27;14.43;;;;;;;;;;5070795;28;20040;-64
2021/12/22 10:57:48;;;;;;;20.02;13.73;;;;;;;;;;5052142;28;20078;-63
2021/12/22 11:00:13;;;;;;;18.90;14.32;;;;;;;;;;5068115;28;20079;-64
2021/12/22 11:02:42;;;;;;;24.25;15.18;;;;;;;;;;5072388;28;20042;-65
2021/12/22 11:05:16;;;;;;;21.55;12.98;;;;;;;;;;5070603;28;20033;-63
2021/12/22 11:07:42;;;;;;;20.75;16.17;;;;;;;;;;5051103;28;20050;-66
2021/12/22 11:10:27;;;;;;;18.85;16.85;;;;;;;;;;5067852;28;20044;-65
2021/12/22 11:13:02;;;;;;;18.75;15.48;;;;;;;;;;5065959;28;20032;-65
2021/12/22 11:15:28;;;;;;;17.38;13.85;;;;;;;;;;5066261;28;20040;-66
2021/12/22 11:17:54;;;;;;;18.77;13.82;;;;;;;;;;5066532;28;20025;-65
2021/12/22 11:20:22;;;;;;;17.98;13.20;;;;;;;;;;5066911;28;20816;-66
2021/12/22 11:23:02;;;;;;;17.23;12.55;;;;;;;;;;5066844;28;20035;-66
2021/12/22 11:25:28;;;;;;;15.68;11.50;;;;;;;;;;5066944;28;20060;-65
2021/12/22 11:27:54;;;;;;;15.25;10.98;;;;;;;;;;5067510;28;20016;-64
2021/12/22 11:30:21;;;;;;;14.88;10.50;;;;;;;;;;5067712;28;20068;-64
2021/12/22 11:32:47;;;;;;;15.77;10.32;;;;;;;;;;5067747;28;20422;-64
2021/12/22 11:35:13;;;;;;;15.70;9.95;;;;;;;;;;5067702;28;20486;-64
2021/12/22 11:37:39;;;;;;;12.85;10.00;;;;;;;;;;5067664;28;20667;-65
2021/12/22 11:40:08;;;;;;;14.35;10.00;;;;;;;;;;5067727;28;20094;-64
2021/12/22 11:42:37;;;;;;;13.48;9.55;;;;;;;;;;5067386;28;20043;-64
2021/12/22 11:45:23;;;;;;;12.80;9.50;;;;;;;;;;5067881;28;20882;-62
2021/12/22 11:47:51;;;;;;;10.43;8.52;;;;;;;;;;5067879;28;20040;-61
2021/12/22 11:50:18;;;;;;;11.52;8.73;;;;;;;;;;5069532;28;20112;-62
2021/12/22 11:52:59;;;;;;;13.05;8.93;;;;;;;;;;5069068;28;20407;-61
2021/12/22 11:55:44;;;;;;;14.15;9.73;;;;;;;;;;5069438;28;20032;-61
2021/12/22 11:58:21;;;;;;;15.38;9.70;;;;;;;;;;5068479;28;20029;-63
2021/12/22 12:00:57;;;;;;;11.15;9.05;;;;;;;;;;5070557;28;20485;-61
2021/12/22 12:03:36;;;;;;;16.92;12.15;;;;;;;;;;5070060;28;20028;-61
2021/12/22 12:06:17;;;;;;;21.55;15.80;;;;;;;;;;5051349;28;20064;-61
2021/12/22 12:08:54;;;;;;;26.05;16.88;;;;;;;;;;5068966;28;20033;-64
2021/12/22 12:11:38;;;;;;;15.02;11.07;;;;;;;;;;5052161;28;20040;-63
2021/12/22 12:14:25;;;;;;;15.43;11.38;;;;;;;;;;5051201;28;20120;-64
2021/12/22 12:22:29;;;;;;;13.85;8.80;;;;;;;;;;5070384;28;20487;-64
2021/12/22 12:24:59;;;;;;;15.27;10.85;;;;;;;;;;5052451;28;20036;-64
2021/12/22 12:27:31;;;;;;;14.68;11.38;;;;;;;;;;5051683;28;20032;-64
2021/12/22 12:29:57;;;;;;;15.15;9.73;;;;;;;;;;5069241;28;20024;-64
2021/12/22 12:32:41;;;;;;;13.45;9.32;;;;;;;;;;5069939;28;20028;-64
2021/12/22 12:35:20;;;;;;;11.07;8.77;;;;;;;;;;5050945;28;20040;-64
2021/12/22 12:38:01;;;;;;;11.10;8.90;;;;;;;;;;5051068;28;20190;-66
2021/12/22 12:40:53;;;;;;;13.20;8.32;;;;;;;;;;5059061;28;20072;-65
2021/12/22 12:43:18;;;;;;;12.05;8.70;;;;;;;;;;5066161;28;20040;-64
2021/12/22 12:45:46;;;;;;;12.13;9.10;;;;;;;;;;5049830;28;20494;-64
2021/12/22 12:48:31;;;;;;;14.27;9.20;;;;;;;;;;5050085;28;20021;-64
2021/12/22 12:51:17;;;;;;;14.20;10.10;;;;;;;;;;5034156;28;20039;-65
2021/12/22 12:53:47;;;;;;;12.45;9.63;;;;;;;;;;5050566;28;20043;-64
2021/12/22 12:56:14;;;;;;;15.65;11.00;;;;;;;;;;5050874;28;20039;-64
2021/12/22 12:58:53;;;;;;;16.85;11.40;;;;;;;;;;5050127;28;20036;-67
2021/12/22 13:01:38;;;;;;;15.30;10.95;;;;;;;;;;5050572;28;20032;-64
2021/12/22 13:04:26;;;;;;;12.75;9.27;;;;;;;;;;5049979;28;20380;-63
2021/12/22 13:06:54;;;;;;;19.60;10.13;;;;;;;;;;5050719;28;20036;-64
2021/12/22 13:09:24;;;;;;;16.77;10.63;;;;;;;;;;5049931;28;20037;-64
2021/12/22 13:11:56;;;;;;;13.40;10.27;;;;;;;;;;5065687;28;20041;-64
2021/12/22 13:17:14;;;;;;;18.08;13.13;;;;;;;;;;5068403;28;20044;-63
2021/12/22 13:19:45;;;;;;;18.48;12.63;;;;;;;;;;5068024;28;20024;-64
2021/12/22 13:22:31;;;;;;;13.90;12.18;;;;;;;;;;5050411;28;20526;-65
2021/12/22 13:25:08;;;;;;;15.00;12.52;;;;;;;;;;5066325;28;20050;-65
2021/12/22 13:27:34;;;;;;;17.13;14.45;;;;;;;;;;5065427;28;20484;-65
2021/12/22 13:30:11;;;;;;;20.65;15.55;;;;;;;;;;5064679;28;20535;-66
2021/12/22 13:32:53;;;;;;;21.67;14.77;;;;;;;;;;5066035;28;20036;-66
2021/12/22 13:35:29;;;;;;;17.30;13.10;;;;;;;;;;5066328;28;20028;-66
2021/12/22 13:37:55;;;;;;;20.55;13.20;;;;;;;;;;5065058;28;20064;-66
2021/12/22 13:40:33;;;;;;;18.10;13.30;;;;;;;;;;5048592;28;20025;-66
2021/12/22 13:43:00;;;;;;;17.77;13.43;;;;;;;;;;5067311;28;20396;-66
2021/12/22 13:45:26;;;;;;;17.30;14.35;;;;;;;;;;5049672;28;20044;-66
2021/12/22 13:47:52;;;;;;;20.63;13.80;;;;;;;;;;5050189;28;20063;-66
2021/12/22 13:50:19;;;;;;;19.17;15.50;;;;;;;;;;5049548;28;20024;-64
2021/12/22 13:52:46;;;;;;;23.90;18.98;;;;;;;;;;5050121;28;20571;-65
2021/12/22 13:55:13;;;;;;;21.70;17.65;;;;;;;;;;5065409;28;20122;-65
2021/12/22 13:57:39;;;;;;;19.85;17.13;;;;;;;;;;5066460;28;20028;-66
2021/12/22 14:00:06;;;;;;;18.08;16.10;;;;;;;;;;5050080;28;20024;-67
2021/12/22 14:02:33;;;;;;;20.90;17.00;;;;;;;;;;5066579;28;20029;-65
2021/12/22 14:05:14;;;;;;;21.70;15.93;;;;;;;;;;5067557;28;20036;-65
2021/12/22 14:07:42;;;;;;;18.98;14.63;;;;;;;;;;5081064;28;20046;-66
2021/12/22 14:10:16;;;;;;;21.75;15.75;;;;;;;;;;5062665;28;20055;-65
2021/12/22 14:12:45;;;;;;;19.85;15.15;;;;;;;;;;5082997;28;20028;-64
2021/12/22 14:15:12;;;;;;;19.52;15.45;;;;;;;;;;5083525;28;20040;-64
2021/12/22 14:17:43;;;;;;;21.77;15.25;;;;;;;;;;5067552;28;20476;-63
2021/12/22 14:20:09;;;;;;;18.42;14.95;;;;;;;;;;5082630;28;20120;-63
2021/12/22 14:22:36;;;;;;;17.85;14.43;;;;;;;;;;5067299;28;20103;-64
2021/12/22 14:25:21;;;;;;;23.15;14.05;;;;;;;;;;5069156;28;20044;-64
2021/12/22 14:27:54;;;;;;;18.02;14.18;;;;;;;;;;5067463;28;20098;-64
2021/12/22 14:30:24;;;;;;;20.15;14.32;;;;;;;;;;5084429;28;20048;-63
2021/12/22 14:32:56;;;;;;;19.75;15.98;;;;;;;;;;5061538;28;20497;-63
2021/12/22 14:35:23;;;;;;;22.42;17.88;;;;;;;;;;5068123;28;20063;-66
2021/12/22 14:37:56;;;;;;;19.70;14.52;;;;;;;;;;5036602;28;20036;-64
2021/12/22 14:40:23;;;;;;;19.23;14.77;;;;;;;;;;5053133;28;20047;-64
2021/12/22 14:43:03;;;;;;;22.30;14.93;;;;;;;;;;5070697;28;20078;-64